Seacod — DDPW — position and weather

sailwx.info

Track history (hours):
 
Tides and Currents Weather Stations Pressure Air Temp Water Temp Dewpoint Dewpoint Depression Visibility Wind Speed Wind Dir Waves Ship Positions

Seacod

Last reported at 2016-Sep-26 01:33 UTC. Time now 2016-Sep-27 01:58 UTC.
Position N 59°36' E 023°07'.

Length 188 m; draft 9.5 m.

Type: Ship. MMSI: 218019000.

Date/timePositionNaut miles runAvg speedWind from/ knotsBaromVisibWave heightAir tempDewpointWater temp
2016-Sep-26 01:33N 59°36' E 023°07'1313.0
2016-Sep-26 00:33N 59°39' E 023°32'3912.8
2016-Sep-25 21:32N 59°49' E 024°47'5012.6
2016-Sep-25 17:33N 60°00' E 026°24'1312.6
2016-Sep-25 16:33N 60°00' E 026°49'2512.2
2016-Sep-25 14:32N 60°09' E 027°35'2311.9
2016-Sep-25 12:33N 60°07' E 028°23'1210.9
2016-Sep-25 11:28N 60°12' E 028°45'13 0.4
2016-Sep-24 03:30N 60°02' E 028°29'0 0.0
2016-Sep-24 02:29N 60°01' E 028°29'0 0.0
2016-Sep-24 01:32N 60°01' E 028°29'0 0.0
2016-Sep-24 00:33N 60°02' E 028°29'0 0.0
2016-Sep-23 19:23N 60°01' E 028°29'0 0.0
2016-Sep-23 17:32N 60°01' E 028°29'0 0.0
2016-Sep-23 16:23N 60°01' E 028°29'0 0.1
2016-Sep-23 15:28N 60°02' E 028°29'0 0.0
2016-Sep-23 13:31N 60°01' E 028°29'0 0.0
2016-Sep-23 09:21N 60°01' E 028°29'0 0.0
2016-Sep-23 06:31N 60°01' E 028°29'0 0.0
2016-Sep-23 04:33N 60°02' E 028°29'0 0.0
2016-Sep-23 03:33N 60°01' E 028°29'0 0.0
2016-Sep-23 02:33N 60°01' E 028°29'0 0.0
2016-Sep-23 01:33N 60°02' E 028°29'0 0.0
2016-Sep-23 00:33N 60°02' E 028°29'0 0.0
2016-Sep-22 23:24N 60°02' E 028°29'0 0.0
2016-Sep-22 20:25N 60°02' E 028°29'0 0.0
2016-Sep-22 12:22N 60°02' E 028°29'0 0.0
2016-Sep-22 04:26N 60°02' E 028°29'2 2.5
2016-Sep-22 03:33N 60°03' E 028°26'29 9.5
2016-Sep-22 00:27N 60°05' E 027°27'910.5
2016-Sep-21 23:33N 60°00' E 027°11'1110.4
2016-Sep-21 22:27N 59°59' E 026°48'6310.7
2016-Sep-21 16:33N 59°46' E 024°45'18 2.6
2016-Sep-21 09:31N 59°29' E 024°31'0 0.0
2016-Sep-21 08:31N 59°29' E 024°31'29 4.8
2016-Sep-21 02:25N 59°28' E 023°33'34811.1
2016-Sep-19 19:05N 55°38' E 015°26'611.9
2016-Sep-19 18:33N 55°35' E 015°16'2412.1
2016-Sep-19 16:33N 55°23' E 014°39'2311.3
2016-Sep-19 14:33N 55°10' E 014°07'1211.6
2016-Sep-19 13:33N 55°11' E 013°46'1211.5
2016-Sep-19 12:32N 55°13' E 013°26'1211.5
2016-Sep-19 11:30N 55°14' E 013°05'18 9.1
2016-Sep-19 09:33N 55°24' E 012°39'2210.8
2016-Sep-19 07:33N 55°45' E 012°41'1211.8
2016-Sep-19 06:33N 55°57' E 012°39'28 9.2
2016-Sep-19 03:33N 56°17' E 012°05'9 9.3
2016-Sep-19 02:33N 56°26' E 012°00'18 9.1
2016-Sep-19 00:33N 56°43' E 011°53'5010.0
2016-Sep-18 19:33N 57°30' E 011°20'4611.4
2016-Sep-18 15:33N 57°48' E 010°01'30711.8
2016-Sep-17 13:33N 53°35' E 004°50'3411.2
2016-Sep-17 10:33N 53°05' E 004°25'1110.8
2016-Sep-17 09:33N 52°56' E 004°17'1110.7
2016-Sep-17 08:33N 52°46' E 004°08'1010.4
2016-Sep-17 07:34N 52°36' E 004°06'10 4.8
2016-Sep-17 05:33N 52°31' E 004°19'0 0.0
2016-Sep-17 04:33N 52°31' E 004°19'0 0.0
2016-Sep-17 00:33N 52°31' E 004°19'0 0.0
2016-Sep-16 17:33N 52°31' E 004°19'0 0.0
2016-Sep-16 15:33N 52°31' E 004°19'0 0.0
2016-Sep-16 12:33N 52°31' E 004°19'0 0.0
2016-Sep-16 09:33N 52°31' E 004°19'0 0.0
2016-Sep-16 07:30N 52°31' E 004°19'0 0.0
2016-Sep-16 03:33N 52°31' E 004°19'0 0.0
2016-Sep-16 02:33N 52°31' E 004°19'  
Track history (hours):
 
Tides and Currents Weather Stations Pressure Air Temp Water Temp Dewpoint Dewpoint Depression Visibility Wind Speed Wind Dir Waves Ship Positions

Seacod

Last reported at 2016-Sep-26 01:33 UTC. Time now 2016-Sep-27 01:58 UTC.
Position N 59°36' E 023°07'.

Length 188 m; draft 9.5 m.

Type: Ship. MMSI: 218019000.

Date/timePositionNaut miles runAvg speedWind from/ knotsBaromVisibWave heightAir tempDewpointWater temp
2016-Sep-26 01:33N 59°36' E 023°07'1313.0
2016-Sep-26 00:33N 59°39' E 023°32'3912.8
2016-Sep-25 21:32N 59°49' E 024°47'5012.6
2016-Sep-25 17:33N 60°00' E 026°24'1312.6
2016-Sep-25 16:33N 60°00' E 026°49'2512.2
2016-Sep-25 14:32N 60°09' E 027°35'2311.9
2016-Sep-25 12:33N 60°07' E 028°23'1210.9
2016-Sep-25 11:28N 60°12' E 028°45'13 0.4
2016-Sep-24 03:30N 60°02' E 028°29'0 0.0
2016-Sep-24 02:29N 60°01' E 028°29'0 0.0
2016-Sep-24 01:32N 60°01' E 028°29'0 0.0
2016-Sep-24 00:33N 60°02' E 028°29'0 0.0
2016-Sep-23 19:23N 60°01' E 028°29'0 0.0
2016-Sep-23 17:32N 60°01' E 028°29'0 0.0
2016-Sep-23 16:23N 60°01' E 028°29'0 0.1
2016-Sep-23 15:28N 60°02' E 028°29'0 0.0
2016-Sep-23 13:31N 60°01' E 028°29'0 0.0
2016-Sep-23 09:21N 60°01' E 028°29'0 0.0
2016-Sep-23 06:31N 60°01' E 028°29'0 0.0
2016-Sep-23 04:33N 60°02' E 028°29'0 0.0
2016-Sep-23 03:33N 60°01' E 028°29'0 0.0
2016-Sep-23 02:33N 60°01' E 028°29'0 0.0
2016-Sep-23 01:33N 60°02' E 028°29'0 0.0
2016-Sep-23 00:33N 60°02' E 028°29'0 0.0
2016-Sep-22 23:24N 60°02' E 028°29'0 0.0
2016-Sep-22 20:25N 60°02' E 028°29'0 0.0
2016-Sep-22 12:22N 60°02' E 028°29'0 0.0
2016-Sep-22 04:26N 60°02' E 028°29'2 2.5
2016-Sep-22 03:33N 60°03' E 028°26'29 9.5
2016-Sep-22 00:27N 60°05' E 027°27'910.5
2016-Sep-21 23:33N 60°00' E 027°11'1110.4
2016-Sep-21 22:27N 59°59' E 026°48'6310.7
2016-Sep-21 16:33N 59°46' E 024°45'18 2.6
2016-Sep-21 09:31N 59°29' E 024°31'0 0.0
2016-Sep-21 08:31N 59°29' E 024°31'29 4.8
2016-Sep-21 02:25N 59°28' E 023°33'34811.1
2016-Sep-19 19:05N 55°38' E 015°26'611.9
2016-Sep-19 18:33N 55°35' E 015°16'2412.1
2016-Sep-19 16:33N 55°23' E 014°39'2311.3
2016-Sep-19 14:33N 55°10' E 014°07'1211.6
2016-Sep-19 13:33N 55°11' E 013°46'1211.5
2016-Sep-19 12:32N 55°13' E 013°26'1211.5
2016-Sep-19 11:30N 55°14' E 013°05'18 9.1
2016-Sep-19 09:33N 55°24' E 012°39'2210.8
2016-Sep-19 07:33N 55°45' E 012°41'1211.8
2016-Sep-19 06:33N 55°57' E 012°39'28 9.2
2016-Sep-19 03:33N 56°17' E 012°05'9 9.3
2016-Sep-19 02:33N 56°26' E 012°00'18 9.1
2016-Sep-19 00:33N 56°43' E 011°53'5010.0
2016-Sep-18 19:33N 57°30' E 011°20'4611.4
2016-Sep-18 15:33N 57°48' E 010°01'30711.8
2016-Sep-17 13:33N 53°35' E 004°50'3411.2
2016-Sep-17 10:33N 53°05' E 004°25'1110.8
2016-Sep-17 09:33N 52°56' E 004°17'1110.7
2016-Sep-17 08:33N 52°46' E 004°08'1010.4
2016-Sep-17 07:34N 52°36' E 004°06'10 4.8
2016-Sep-17 05:33N 52°31' E 004°19'0 0.0
2016-Sep-17 04:33N 52°31' E 004°19'0 0.0
2016-Sep-17 00:33N 52°31' E 004°19'0 0.0
2016-Sep-16 17:33N 52°31' E 004°19'0 0.0
2016-Sep-16 15:33N 52°31' E 004°19'0 0.0
2016-Sep-16 12:33N 52°31' E 004°19'0 0.0
2016-Sep-16 09:33N 52°31' E 004°19'0 0.0
2016-Sep-16 07:30N 52°31' E 004°19'0 0.0
2016-Sep-16 03:33N 52°31' E 004°19'0 0.0
2016-Sep-16 02:33N 52°31' E 004°19'  

Dump ship's entire track history